createdAt,value
2023-05-10T00:00:33.543Z,364.00
2023-05-10T00:01:33.593Z,365.00
2023-05-10T00:02:33.654Z,366.00
2023-05-10T00:03:33.644Z,364.00
2023-05-10T00:04:33.639Z,365.00
2023-05-10T00:05:33.681Z,364.00
2023-05-10T00:06:33.711Z,366.00
2023-05-10T00:07:33.785Z,364.00
2023-05-10T00:08:33.831Z,363.00
2023-05-10T00:09:33.797Z,363.00
2023-05-10T00:10:33.832Z,364.00
2023-05-10T00:11:33.890Z,362.00
2023-05-10T00:12:33.925Z,362.00
2023-05-10T00:13:33.922Z,363.00
2023-05-10T00:14:33.935Z,364.00
2023-05-10T00:15:33.993Z,364.00
2023-05-10T00:16:34.058Z,364.00
2023-05-10T00:17:34.076Z,363.00
2023-05-10T00:18:34.082Z,362.00
2023-05-10T00:19:34.132Z,362.00
2023-05-10T00:20:34.106Z,362.00
2023-05-10T00:21:34.174Z,362.00
2023-05-10T00:22:34.232Z,363.00
2023-05-10T00:23:34.227Z,362.00
2023-05-10T00:24:34.274Z,360.00
2023-05-10T00:25:34.321Z,359.00
2023-05-10T00:26:34.353Z,360.00
2023-05-10T00:27:34.371Z,360.00
2023-05-10T00:28:34.415Z,360.00
2023-05-10T00:29:34.462Z,361.00
2023-05-10T00:30:34.461Z,360.00
2023-05-10T00:31:34.527Z,361.00
2023-05-10T00:32:34.563Z,359.00
2023-05-10T00:33:34.590Z,355.00
2023-05-10T00:34:34.625Z,358.00
2023-05-10T00:35:34.629Z,358.00
2023-05-10T00:36:34.701Z,358.00
2023-05-10T00:37:34.702Z,359.00
2023-05-10T00:38:34.706Z,360.00
2023-05-10T00:39:34.801Z,361.00
2023-05-10T00:40:34.816Z,361.00
2023-05-10T00:41:34.845Z,361.00
2023-05-10T00:42:34.838Z,359.00
2023-05-10T00:43:34.890Z,360.00
2023-05-10T00:44:34.889Z,362.00
2023-05-10T00:45:34.972Z,363.00
2023-05-10T00:46:35.083Z,362.00
2023-05-10T00:47:35.061Z,362.00
2023-05-10T00:48:35.065Z,363.00
2023-05-10T00:49:35.097Z,361.00
2023-05-10T00:50:35.108Z,361.00
2023-05-10T00:51:35.140Z,364.00
2023-05-10T00:52:35.195Z,365.00
2023-05-10T00:53:35.232Z,364.00
2023-05-10T00:54:35.235Z,363.00
2023-05-10T00:55:35.277Z,363.00
2023-05-10T00:56:35.302Z,361.00
2023-05-10T00:57:35.369Z,360.00
2023-05-10T00:58:35.383Z,358.00
2023-05-10T00:59:35.399Z,358.00
2023-05-10T01:00:35.427Z,358.00
2023-05-10T01:01:35.521Z,361.00
2023-05-10T01:02:35.650Z,361.00
2023-05-10T01:03:35.578Z,363.00
2023-05-10T01:04:35.608Z,362.00
2023-05-10T01:05:35.593Z,359.00
2023-05-10T01:06:35.625Z,362.00
2023-05-10T01:07:35.681Z,363.00
2023-05-10T01:08:35.714Z,367.00
2023-05-10T01:09:35.723Z,365.00
2023-05-10T01:10:35.794Z,363.00
2023-05-10T01:11:35.818Z,362.00
2023-05-10T01:12:35.906Z,361.00
2023-05-10T01:13:35.914Z,362.00
2023-05-10T01:14:35.920Z,363.00
2023-05-10T01:15:36.032Z,364.00
2023-05-10T01:16:36.043Z,361.00
2023-05-10T01:17:36.038Z,364.00
2023-05-10T01:18:36.061Z,365.00
2023-05-10T01:19:36.155Z,366.00
2023-05-10T01:20:36.124Z,366.00
2023-05-10T01:21:36.229Z,365.00
2023-05-10T01:22:36.221Z,364.00
2023-05-10T01:23:36.249Z,365.00
2023-05-10T01:24:36.282Z,362.00
2023-05-10T01:25:36.294Z,361.00
2023-05-10T01:26:36.389Z,362.00
2023-05-10T01:27:36.359Z,363.00
2023-05-10T01:28:36.437Z,363.00
2023-05-10T01:29:36.477Z,363.00
2023-05-10T01:30:36.502Z,362.00
2023-05-10T01:31:36.594Z,363.00
2023-05-10T01:32:36.632Z,362.00
2023-05-10T01:33:36.608Z,363.00
2023-05-10T01:34:36.652Z,360.00
2023-05-10T01:35:36.681Z,360.00
2023-05-10T01:36:36.700Z,360.00
2023-05-10T01:37:36.706Z,360.00
2023-05-10T01:38:36.802Z,360.00
2023-05-10T01:39:36.811Z,360.00
2023-05-10T01:40:36.827Z,361.00
2023-05-10T01:41:36.864Z,360.00
2023-05-10T01:42:36.900Z,361.00
2023-05-10T01:43:36.923Z,360.00
2023-05-10T01:44:36.987Z,361.00
2023-05-10T01:45:37.001Z,365.00
2023-05-10T01:46:37.074Z,366.00
2023-05-10T01:47:37.094Z,364.00
2023-05-10T01:48:37.127Z,364.00
2023-05-10T01:49:37.152Z,365.00
2023-05-10T01:50:37.201Z,364.00
2023-05-10T01:51:37.253Z,365.00
2023-05-10T01:52:37.298Z,364.00
2023-05-10T01:53:37.321Z,363.00
2023-05-10T01:54:37.366Z,364.00
2023-05-10T01:55:37.411Z,362.00
2023-05-10T01:56:37.429Z,361.00
2023-05-10T01:57:37.461Z,360.00
2023-05-10T01:58:37.495Z,361.00
2023-05-10T01:59:37.550Z,361.00
2023-05-10T02:00:37.645Z,360.00
2023-05-10T02:01:37.684Z,356.00
2023-05-10T02:02:37.759Z,357.00
2023-05-10T02:03:37.724Z,357.00
2023-05-10T02:04:37.737Z,358.00
2023-05-10T02:05:37.767Z,360.00
2023-05-10T02:06:37.823Z,361.00
2023-05-10T02:07:37.854Z,360.00
2023-05-10T02:08:37.899Z,362.00
2023-05-10T02:09:38.013Z,362.00
2023-05-10T02:10:37.987Z,358.00
2023-05-10T02:11:38.054Z,358.00
2023-05-10T02:12:38.052Z,359.00
2023-05-10T02:13:38.079Z,360.00
2023-05-10T02:14:38.173Z,360.00
2023-05-10T02:15:38.176Z,359.00
2023-05-10T02:16:38.286Z,361.00
2023-05-10T02:17:38.327Z,362.00
2023-05-10T02:18:38.305Z,362.00
2023-05-10T02:19:38.325Z,361.00
2023-05-10T02:20:38.352Z,360.00
2023-05-10T02:21:38.426Z,360.00
2023-05-10T02:22:38.445Z,358.00
2023-05-10T02:23:38.527Z,357.00
2023-05-10T02:24:38.520Z,356.00
2023-05-10T02:25:38.577Z,356.00
2023-05-10T02:26:38.604Z,359.00
2023-05-10T02:27:38.643Z,359.00
2023-05-10T02:28:38.678Z,358.00
2023-05-10T02:29:38.768Z,359.00
2023-05-10T02:30:38.791Z,357.00
2023-05-10T02:31:38.877Z,359.00
2023-05-10T02:32:38.879Z,360.00
2023-05-10T02:33:38.938Z,361.00
2023-05-10T02:34:38.983Z,360.00
2023-05-10T02:35:38.975Z,360.00
2023-05-10T02:36:39.040Z,359.00
2023-05-10T02:37:39.064Z,361.00
2023-05-10T02:38:39.093Z,361.00
2023-05-10T02:39:39.148Z,361.00
2023-05-10T02:40:39.183Z,362.00
2023-05-10T02:41:39.226Z,361.00
2023-05-10T02:42:39.289Z,361.00
2023-05-10T02:43:39.284Z,360.00
2023-05-10T02:44:39.370Z,360.00
2023-05-10T02:45:39.407Z,357.00
2023-05-10T02:46:39.496Z,358.00
2023-05-10T02:47:39.490Z,359.00
2023-05-10T02:48:39.529Z,363.00
2023-05-10T02:49:39.585Z,363.00
2023-05-10T02:50:39.595Z,363.00
2023-05-10T02:51:39.654Z,363.00
2023-05-10T02:52:39.668Z,362.00
2023-05-10T02:53:39.735Z,362.00
2023-05-10T02:54:39.753Z,362.00
2023-05-10T02:55:39.784Z,362.00
2023-05-10T02:56:39.867Z,360.00
2023-05-10T02:57:39.865Z,362.00
2023-05-10T02:58:39.944Z,363.00
2023-05-10T02:59:39.966Z,363.00
2023-05-10T03:00:40.019Z,361.00
2023-05-10T03:01:40.105Z,360.00
2023-05-10T03:02:40.186Z,359.00
2023-05-10T03:03:40.167Z,359.00
2023-05-10T03:04:40.234Z,361.00
2023-05-10T03:05:40.239Z,361.00
2023-05-10T03:06:40.269Z,361.00
2023-05-10T03:07:40.331Z,361.00
2023-05-10T03:08:40.354Z,363.00
2023-05-10T03:09:40.361Z,366.00
2023-05-10T03:10:40.435Z,367.00
2023-05-10T03:11:40.452Z,367.00
2023-05-10T03:12:40.483Z,368.00
2023-05-10T03:13:40.560Z,369.00
2023-05-10T03:14:40.576Z,366.00
2023-05-10T03:15:40.651Z,366.00
2023-05-10T03:16:42.045Z,364.00
2023-05-10T03:17:40.694Z,366.00
2023-05-10T03:18:40.654Z,365.00
2023-05-10T03:19:40.638Z,365.00
2023-05-10T03:20:40.607Z,366.00
2023-05-10T03:21:40.626Z,364.00
2023-05-10T03:22:40.625Z,361.00
2023-05-10T03:23:40.632Z,361.00
2023-05-10T03:24:40.611Z,361.00
2023-05-10T03:25:40.611Z,361.00
2023-05-10T03:26:40.619Z,364.00
2023-05-10T03:27:40.561Z,366.00
2023-05-10T03:28:40.605Z,366.00
2023-05-10T03:29:40.580Z,367.00
2023-05-10T03:30:40.588Z,364.00
2023-05-10T03:31:40.574Z,366.00
2023-05-10T03:32:40.543Z,367.00
2023-05-10T03:33:40.553Z,366.00
2023-05-10T03:34:40.540Z,365.00
2023-05-10T03:35:40.574Z,364.00
2023-05-10T03:36:40.531Z,364.00
2023-05-10T03:37:40.540Z,364.00
2023-05-10T03:38:40.515Z,365.00
2023-05-10T03:39:40.497Z,364.00
2023-05-10T03:40:40.495Z,364.00
2023-05-10T03:41:40.507Z,365.00
2023-05-10T03:42:40.515Z,367.00
2023-05-10T03:43:40.467Z,364.00
2023-05-10T03:44:40.502Z,361.00
2023-05-10T03:45:40.493Z,360.00
2023-05-10T03:46:40.516Z,360.00
2023-05-10T03:47:40.476Z,360.00
2023-05-10T03:48:40.449Z,359.00
2023-05-10T03:49:40.408Z,360.00
2023-05-10T03:50:40.468Z,360.00
2023-05-10T03:51:40.433Z,360.00
2023-05-10T03:52:40.425Z,359.00
2023-05-10T03:53:40.435Z,358.00
2023-05-10T03:54:40.401Z,356.00
2023-05-10T03:55:40.366Z,356.00
2023-05-10T03:56:40.379Z,356.00
2023-05-10T03:57:40.368Z,355.00
2023-05-10T03:58:40.391Z,355.00
2023-05-10T03:59:40.369Z,355.00
2023-05-10T04:00:40.368Z,358.00
2023-05-10T04:01:40.419Z,357.00
2023-05-10T04:02:40.471Z,356.00
2023-05-10T04:03:40.404Z,357.00
2023-05-10T04:04:40.313Z,357.00
2023-05-10T04:05:40.359Z,357.00
2023-05-10T04:06:40.395Z,356.00
2023-05-10T04:07:40.418Z,355.00
2023-05-10T04:08:40.494Z,356.00
2023-05-10T04:09:40.499Z,358.00
2023-05-10T04:10:40.511Z,359.00
2023-05-10T04:11:40.557Z,360.00
2023-05-10T04:12:40.617Z,362.00
2023-05-10T04:13:40.627Z,363.00
2023-05-10T04:14:40.649Z,364.00
2023-05-10T04:15:40.711Z,366.00
2023-05-10T04:16:40.764Z,368.00
2023-05-10T04:17:40.847Z,371.00
2023-05-10T04:18:40.818Z,373.00
2023-05-10T04:19:40.866Z,376.00
2023-05-10T04:20:40.868Z,377.00
2023-05-10T04:21:40.922Z,377.00
2023-05-10T04:22:40.959Z,378.00
2023-05-10T04:23:41.000Z,377.00
2023-05-10T04:24:41.066Z,376.00
2023-05-10T04:25:41.122Z,377.00
2023-05-10T04:26:41.121Z,377.00
2023-05-10T04:27:41.197Z,376.00
2023-05-10T04:28:41.173Z,379.00
2023-05-10T04:29:41.239Z,381.00
2023-05-10T04:30:41.312Z,383.00
2023-05-10T04:31:41.364Z,383.00
2023-05-10T04:32:41.339Z,384.00
2023-05-10T04:33:41.397Z,385.00
2023-05-10T04:34:41.484Z,385.00
2023-05-10T04:35:41.518Z,385.00
2023-05-10T04:36:41.536Z,384.00
2023-05-10T04:37:41.670Z,384.00
2023-05-10T04:38:41.729Z,383.00
2023-05-10T04:39:42.412Z,382.00
2023-05-10T04:40:41.753Z,378.00
2023-05-10T04:41:41.752Z,376.00
2023-05-10T04:42:41.894Z,373.00
2023-05-10T04:43:41.901Z,371.00
2023-05-10T04:44:41.972Z,371.00
2023-05-10T04:45:42.005Z,370.00
2023-05-10T04:46:42.256Z,371.00
2023-05-10T04:47:42.175Z,373.00
2023-05-10T04:48:42.135Z,376.00
2023-05-10T04:49:42.213Z,374.00
2023-05-10T04:50:42.256Z,373.00
2023-05-10T04:51:42.320Z,373.00
2023-05-10T04:52:42.324Z,374.00
2023-05-10T04:53:44.662Z,373.00
2023-05-10T04:54:43.360Z,374.00
2023-05-10T04:55:42.368Z,374.00
2023-05-10T04:56:42.362Z,377.00
2023-05-10T04:57:42.346Z,380.00
2023-05-10T04:58:42.360Z,377.00
2023-05-10T04:59:42.354Z,378.00
2023-05-10T05:00:42.354Z,377.00
2023-05-10T05:01:42.387Z,376.00
2023-05-10T05:02:42.504Z,378.00
2023-05-10T05:03:42.339Z,379.00
2023-05-10T05:04:42.308Z,379.00
2023-05-10T05:05:42.341Z,380.00
2023-05-10T05:06:42.367Z,379.00
2023-05-10T05:07:42.432Z,380.00
2023-05-10T05:08:42.535Z,378.00
2023-05-10T05:09:42.545Z,376.00
2023-05-10T05:10:42.555Z,375.00
2023-05-10T05:11:42.606Z,376.00
2023-05-10T05:12:42.731Z,374.00
2023-05-10T05:13:42.692Z,373.00
2023-05-10T05:14:42.777Z,372.00
2023-05-10T05:15:42.793Z,373.00
2023-05-10T05:16:42.892Z,375.00
2023-05-10T05:17:42.947Z,377.00
2023-05-10T05:18:42.913Z,377.00
2023-05-10T05:19:42.935Z,376.00
2023-05-10T05:20:42.956Z,376.00
2023-05-10T05:21:43.030Z,379.00
2023-05-10T05:22:43.084Z,378.00
2023-05-10T05:23:43.139Z,379.00
2023-05-10T05:24:43.158Z,377.00
2023-05-10T05:25:43.208Z,377.00
2023-05-10T05:26:43.285Z,376.00
2023-05-10T05:27:43.274Z,377.00
2023-05-10T05:28:43.327Z,378.00
2023-05-10T05:29:43.364Z,379.00
2023-05-10T05:30:43.403Z,381.00
2023-05-10T05:31:43.581Z,380.00
2023-05-10T05:32:43.625Z,378.00
2023-05-10T05:33:43.531Z,375.00
2023-05-10T05:34:43.580Z,377.00
2023-05-10T05:35:43.637Z,384.00
2023-05-10T05:36:43.687Z,391.00
2023-05-10T05:37:43.799Z,397.00
2023-05-10T05:38:43.808Z,420.00
2023-05-10T05:39:43.894Z,1202.00
2023-05-10T05:40:43.872Z,569.00
2023-05-10T05:41:44.088Z,487.00
2023-05-10T05:42:43.887Z,478.00
2023-05-10T05:43:43.898Z,480.00
2023-05-10T05:44:43.903Z,667.00
2023-05-10T05:45:43.957Z,536.00
2023-05-10T05:46:43.960Z,514.00
2023-05-10T05:47:43.977Z,521.00
2023-05-10T05:48:44.249Z,574.00
2023-05-10T05:49:44.097Z,578.00
2023-05-10T05:50:44.098Z,579.00
2023-05-10T05:51:44.057Z,580.00
2023-05-10T05:52:44.094Z,578.00
2023-05-10T05:53:44.128Z,580.00
2023-05-10T05:54:44.067Z,584.00
2023-05-10T05:55:44.126Z,589.00
2023-05-10T05:56:44.618Z,589.00
2023-05-10T05:57:44.201Z,590.00
2023-05-10T05:58:44.251Z,590.00
2023-05-10T05:59:44.326Z,589.00
2023-05-10T06:00:44.370Z,593.00
2023-05-10T06:01:44.669Z,593.00
2023-05-10T06:02:44.716Z,592.00
2023-05-10T06:03:44.687Z,593.00
2023-05-10T06:04:44.903Z,596.00
2023-05-10T06:05:44.624Z,597.00
2023-05-10T06:06:45.125Z,595.00
2023-05-10T06:07:44.722Z,597.00
2023-05-10T06:08:44.795Z,596.00
2023-05-10T06:09:45.098Z,597.00
2023-05-10T06:10:44.849Z,598.00
2023-05-10T06:11:45.114Z,597.00
2023-05-10T06:12:45.059Z,598.00
2023-05-10T06:13:44.919Z,600.00
2023-05-10T06:14:45.096Z,603.00
2023-05-10T06:15:45.057Z,603.00
2023-05-10T06:16:45.085Z,603.00
2023-05-10T06:17:45.124Z,605.00
2023-05-10T06:18:45.086Z,607.00
2023-05-10T06:19:45.217Z,605.00
2023-05-10T06:20:45.141Z,607.00
2023-05-10T06:21:45.199Z,608.00
2023-05-10T06:22:45.223Z,610.00
2023-05-10T06:23:45.324Z,608.00
2023-05-10T06:24:45.304Z,609.00
2023-05-10T06:25:45.316Z,609.00
2023-05-10T06:26:45.343Z,614.00
2023-05-10T06:27:48.413Z,613.00
2023-05-10T06:28:46.407Z,613.00
2023-05-10T06:29:45.372Z,616.00
2023-05-10T06:30:45.346Z,616.00
2023-05-10T06:31:45.405Z,614.00
2023-05-10T06:32:45.363Z,615.00
2023-05-10T06:33:45.366Z,616.00
2023-05-10T06:34:45.315Z,618.00
2023-05-10T06:35:45.323Z,620.00
2023-05-10T06:36:45.316Z,631.00
2023-05-10T06:37:45.414Z,630.00
2023-05-10T06:38:45.660Z,682.00
2023-05-10T06:39:45.453Z,657.00
2023-05-10T06:40:45.449Z,660.00
2023-05-10T06:41:45.454Z,692.00
2023-05-10T06:42:45.496Z,678.00
2023-05-10T06:43:45.530Z,674.00
2023-05-10T06:44:45.581Z,689.00
2023-05-10T06:45:45.598Z,694.00
2023-05-10T06:46:45.691Z,695.00
2023-05-10T06:47:45.698Z,696.00
2023-05-10T06:48:46.135Z,697.00
2023-05-10T06:49:46.132Z,698.00
2023-05-10T06:50:46.144Z,700.00
2023-05-10T06:51:46.109Z,697.00
2023-05-10T06:52:46.150Z,694.00
2023-05-10T06:53:45.859Z,690.00
2023-05-10T06:54:46.120Z,689.00
2023-05-10T06:55:46.157Z,685.00
2023-05-10T06:56:45.909Z,681.00
2023-05-10T06:57:46.113Z,681.00
2023-05-10T06:58:46.015Z,679.00
2023-05-10T06:59:45.986Z,680.00
2023-05-10T07:00:46.065Z,681.00
2023-05-10T07:01:46.072Z,680.00
2023-05-10T07:02:46.034Z,677.00
2023-05-10T07:03:46.117Z,677.00
2023-05-10T07:04:46.190Z,675.00
2023-05-10T07:05:46.171Z,671.00
2023-05-10T07:06:46.097Z,667.00
2023-05-10T07:07:46.117Z,664.00
2023-05-10T07:08:46.137Z,666.00
2023-05-10T07:09:46.156Z,664.00
2023-05-10T07:10:46.178Z,662.00
2023-05-10T07:11:46.185Z,660.00
2023-05-10T07:12:46.354Z,656.00
2023-05-10T07:13:46.260Z,653.00
2023-05-10T07:14:46.628Z,654.00
2023-05-10T07:15:46.622Z,651.00
2023-05-10T07:16:46.288Z,648.00
2023-05-10T07:17:46.550Z,645.00
2023-05-10T07:18:46.641Z,642.00
2023-05-10T07:19:46.642Z,641.00
2023-05-10T07:20:46.443Z,641.00
2023-05-10T07:21:46.344Z,644.00
2023-05-10T07:22:46.437Z,643.00
2023-05-10T07:23:46.408Z,641.00
2023-05-10T07:24:46.474Z,642.00
2023-05-10T07:25:46.460Z,643.00
2023-05-10T07:26:46.458Z,647.00
2023-05-10T07:27:46.454Z,652.00
2023-05-10T07:28:46.492Z,648.00
2023-05-10T07:29:46.473Z,644.00
2023-05-10T07:30:46.524Z,641.00
2023-05-10T07:31:46.599Z,647.00
2023-05-10T07:32:46.569Z,651.00
2023-05-10T07:33:46.604Z,657.00
2023-05-10T07:34:46.784Z,676.00
2023-05-10T07:35:46.656Z,814.00
2023-05-10T07:36:46.622Z,746.00
2023-05-10T07:37:47.150Z,698.00
2023-05-10T07:38:46.659Z,691.00
2023-05-10T07:39:47.154Z,684.00
2023-05-10T07:40:47.160Z,684.00
2023-05-10T07:41:46.770Z,686.00
2023-05-10T07:42:46.826Z,685.00
2023-05-10T07:43:46.872Z,685.00
2023-05-10T07:44:46.838Z,687.00
2023-05-10T07:45:47.175Z,694.00
2023-05-10T07:46:46.903Z,699.00
2023-05-10T07:47:46.956Z,709.00
2023-05-10T07:48:46.839Z,713.00
2023-05-10T07:49:46.862Z,712.00
2023-05-10T07:50:46.945Z,717.00
2023-05-10T07:51:46.873Z,717.00
2023-05-10T07:52:46.868Z,721.00
2023-05-10T07:53:46.912Z,725.00
2023-05-10T07:54:46.884Z,722.00
2023-05-10T07:55:46.885Z,722.00
2023-05-10T07:56:46.911Z,730.00
2023-05-10T07:57:46.908Z,734.00
2023-05-10T07:58:46.902Z,744.00
2023-05-10T07:59:46.880Z,740.00
2023-05-10T08:00:46.952Z,737.00
2023-05-10T08:01:46.903Z,740.00
2023-05-10T08:02:46.923Z,742.00
2023-05-10T08:03:46.993Z,747.00
2023-05-10T08:04:46.908Z,748.00
2023-05-10T08:05:46.882Z,749.00
2023-05-10T08:06:46.882Z,754.00
2023-05-10T08:07:47.181Z,756.00
2023-05-10T08:08:46.898Z,755.00
2023-05-10T08:09:46.936Z,748.00
2023-05-10T08:10:46.885Z,746.00
2023-05-10T08:11:47.174Z,746.00
2023-05-10T08:12:46.889Z,749.00
2023-05-10T08:13:46.920Z,747.00
2023-05-10T08:14:47.041Z,749.00
2023-05-10T08:15:47.053Z,751.00
2023-05-10T08:16:46.994Z,752.00
2023-05-10T08:17:47.005Z,751.00
2023-05-10T08:18:47.242Z,751.00
2023-05-10T08:19:47.010Z,750.00
2023-05-10T08:20:47.028Z,749.00
2023-05-10T08:21:47.024Z,747.00
2023-05-10T08:22:47.048Z,747.00
2023-05-10T08:23:47.086Z,745.00
2023-05-10T08:24:47.047Z,743.00
2023-05-10T08:25:47.085Z,742.00
2023-05-10T08:26:47.062Z,736.00
2023-05-10T08:27:47.087Z,727.00
2023-05-10T08:28:47.143Z,714.00
2023-05-10T08:29:50.330Z,700.00
2023-05-10T08:30:47.035Z,685.00
2023-05-10T08:31:47.136Z,673.00
2023-05-10T08:32:47.081Z,667.00
2023-05-10T08:33:47.168Z,660.00
2023-05-10T08:34:47.068Z,651.00
2023-05-10T08:35:47.030Z,647.00
2023-05-10T08:36:47.018Z,642.00
2023-05-10T08:37:46.978Z,639.00
2023-05-10T08:38:46.990Z,636.00
2023-05-10T08:39:47.169Z,638.00
2023-05-10T08:40:46.993Z,639.00
2023-05-10T08:41:47.005Z,636.00
2023-05-10T08:42:46.967Z,638.00
2023-05-10T08:43:46.992Z,637.00
2023-05-10T08:44:49.329Z,656.00
2023-05-10T08:45:47.190Z,680.00
2023-05-10T08:46:47.252Z,689.00
2023-05-10T08:47:47.227Z,690.00
2023-05-10T08:48:47.233Z,712.00
2023-05-10T08:49:47.143Z,756.00
2023-05-10T08:50:47.188Z,757.00
2023-05-10T08:51:47.153Z,763.00
2023-05-10T08:52:47.172Z,768.00
2023-05-10T08:53:47.195Z,774.00
2023-05-10T08:54:47.197Z,788.00
2023-05-10T08:55:47.686Z,798.00
2023-05-10T08:56:49.756Z,808.00
2023-05-10T08:57:47.689Z,1192.00
2023-05-10T08:58:47.651Z,988.00
2023-05-10T08:59:47.501Z,938.00
2023-05-10T09:00:47.543Z,923.00
2023-05-10T09:01:47.505Z,906.00
2023-05-10T09:02:47.475Z,910.00
2023-05-10T09:03:47.506Z,908.00
2023-05-10T09:04:47.526Z,910.00
2023-05-10T09:05:47.490Z,906.00
2023-05-10T09:06:47.506Z,904.00
2023-05-10T09:07:47.494Z,904.00
2023-05-10T09:08:47.499Z,905.00
2023-05-10T09:09:47.511Z,908.00
2023-05-10T09:10:47.502Z,910.00
2023-05-10T09:11:47.515Z,906.00
2023-05-10T09:12:47.564Z,904.00
2023-05-10T09:13:47.597Z,901.00
2023-05-10T09:14:47.592Z,894.00
2023-05-10T09:15:47.616Z,889.00
2023-05-10T09:16:47.690Z,891.00
2023-05-10T09:17:47.733Z,895.00
2023-05-10T09:18:47.720Z,899.00
2023-05-10T09:19:47.738Z,896.00
2023-05-10T09:20:47.794Z,905.00
2023-05-10T09:21:48.206Z,909.00
2023-05-10T09:22:47.930Z,917.00
2023-05-10T09:23:48.725Z,930.00
2023-05-10T09:24:47.928Z,938.00
2023-05-10T09:25:47.954Z,945.00
2023-05-10T09:26:48.218Z,947.00
2023-05-10T09:27:47.983Z,953.00
2023-05-10T09:28:48.157Z,987.00
2023-05-10T09:29:48.053Z,986.00
2023-05-10T09:30:48.158Z,981.00
2023-05-10T09:31:48.192Z,994.00
2023-05-10T09:32:48.159Z,898.00
2023-05-10T09:33:48.194Z,851.00
2023-05-10T09:34:48.193Z,756.00
2023-05-10T09:35:48.222Z,751.00
2023-05-10T09:36:48.225Z,695.00
2023-05-10T09:37:48.318Z,668.00
2023-05-10T09:38:48.738Z,655.00
2023-05-10T09:39:48.338Z,658.00
2023-05-10T09:40:48.382Z,673.00
2023-05-10T09:41:48.454Z,683.00
2023-05-10T09:42:48.448Z,689.00
2023-05-10T09:43:48.745Z,690.00
2023-05-10T09:44:48.526Z,695.00
2023-05-10T09:45:48.598Z,702.00
2023-05-10T09:46:48.584Z,703.00
2023-05-10T09:47:48.686Z,700.00
2023-05-10T09:48:49.602Z,699.00
2023-05-10T09:49:48.590Z,697.00
2023-05-10T09:50:48.749Z,694.00
2023-05-10T09:51:48.684Z,695.00
2023-05-10T09:52:48.729Z,696.00
2023-05-10T09:53:48.910Z,696.00
2023-05-10T09:54:49.217Z,697.00
2023-05-10T09:55:48.640Z,698.00
2023-05-10T09:56:48.687Z,699.00
2023-05-10T09:57:48.683Z,702.00
2023-05-10T09:58:48.627Z,705.00
2023-05-10T09:59:48.657Z,706.00
2023-05-10T10:00:48.651Z,701.00
2023-05-10T10:01:48.731Z,695.00
2023-05-10T10:02:49.298Z,689.00
2023-05-10T10:03:48.767Z,685.00
2023-05-10T10:04:48.764Z,684.00
2023-05-10T10:05:48.830Z,682.00
2023-05-10T10:06:48.820Z,681.00
2023-05-10T10:07:48.877Z,683.00
2023-05-10T10:08:48.946Z,684.00
2023-05-10T10:09:48.885Z,685.00
2023-05-10T10:10:48.938Z,685.00
2023-05-10T10:11:48.979Z,684.00
2023-05-10T10:12:49.026Z,678.00
2023-05-10T10:13:49.060Z,680.00
2023-05-10T10:14:49.110Z,682.00
2023-05-10T10:15:49.201Z,682.00
2023-05-10T10:17:05.060Z,682.00
2023-05-10T10:17:50.281Z,681.00
2023-05-10T10:18:49.252Z,681.00
2023-05-10T10:19:49.245Z,684.00
2023-05-10T10:20:49.185Z,684.00
2023-05-10T10:21:49.151Z,683.00
2023-05-10T10:22:49.194Z,683.00
2023-05-10T10:23:49.145Z,683.00
2023-05-10T10:24:49.148Z,683.00
2023-05-10T10:25:49.173Z,685.00
2023-05-10T10:26:49.247Z,711.00
2023-05-10T10:27:49.168Z,708.00
2023-05-10T10:28:49.255Z,709.00
2023-05-10T10:29:49.235Z,700.00
2023-05-10T10:30:49.261Z,778.00
2023-05-10T10:31:49.416Z,703.00
2023-05-10T10:32:49.228Z,741.00
2023-05-10T10:33:49.241Z,747.00
2023-05-10T10:34:49.263Z,749.00
2023-05-10T10:35:49.226Z,748.00
2023-05-10T10:36:49.231Z,757.00
2023-05-10T10:37:49.256Z,762.00
2023-05-10T10:38:49.269Z,769.00
2023-05-10T10:39:49.322Z,776.00
2023-05-10T10:40:49.310Z,789.00
2023-05-10T10:41:49.367Z,789.00
2023-05-10T10:42:49.438Z,791.00
2023-05-10T10:43:49.487Z,798.00
2023-05-10T10:44:49.552Z,801.00
2023-05-10T10:45:49.610Z,805.00
2023-05-10T10:46:49.725Z,807.00
2023-05-10T10:47:49.759Z,808.00
2023-05-10T10:48:49.782Z,808.00
2023-05-10T10:49:49.935Z,802.00
2023-05-10T10:50:49.944Z,801.00
2023-05-10T10:51:50.013Z,798.00
2023-05-10T10:52:50.043Z,797.00
2023-05-10T10:53:50.132Z,796.00
2023-05-10T10:54:50.188Z,793.00
2023-05-10T10:55:50.239Z,792.00
2023-05-10T10:56:50.278Z,790.00
2023-05-10T10:57:50.358Z,790.00
2023-05-10T10:58:50.408Z,791.00
2023-05-10T10:59:50.479Z,791.00
2023-05-10T11:00:50.623Z,786.00
2023-05-10T11:01:50.600Z,784.00
2023-05-10T11:02:50.696Z,782.00
2023-05-10T11:03:50.766Z,780.00
2023-05-10T11:04:50.891Z,780.00
2023-05-10T11:05:50.842Z,783.00
2023-05-10T11:06:50.939Z,783.00
2023-05-10T11:07:50.949Z,785.00
2023-05-10T11:08:51.050Z,784.00
2023-05-10T11:09:51.128Z,783.00
2023-05-10T11:10:51.105Z,784.00
2023-05-10T11:11:51.178Z,784.00
2023-05-10T11:12:51.214Z,784.00
2023-05-10T11:13:51.807Z,777.00
2023-05-10T11:14:51.391Z,788.00
2023-05-10T11:15:51.402Z,795.00
2023-05-10T11:16:51.493Z,798.00
2023-05-10T11:17:51.479Z,782.00
2023-05-10T11:18:51.640Z,741.00
2023-05-10T11:19:51.640Z,666.00
2023-05-10T11:20:51.687Z,646.00
2023-05-10T11:21:51.750Z,635.00
2023-05-10T11:22:51.766Z,621.00
2023-05-10T11:23:51.764Z,611.00
2023-05-10T11:24:51.766Z,591.00
2023-05-10T11:25:51.727Z,567.00
2023-05-10T11:26:51.795Z,553.00
2023-05-10T11:27:51.772Z,541.00
2023-05-10T11:28:51.785Z,529.00
2023-05-10T11:29:51.749Z,521.00
2023-05-10T11:30:51.863Z,511.00
2023-05-10T11:31:51.819Z,504.00
2023-05-10T11:32:51.893Z,493.00
2023-05-10T11:33:51.865Z,484.00
2023-05-10T11:34:51.928Z,475.00
2023-05-10T11:35:51.948Z,469.00
2023-05-10T11:36:51.945Z,461.00
2023-05-10T11:37:52.048Z,453.00
2023-05-10T11:38:52.020Z,445.00
2023-05-10T11:39:52.027Z,440.00
2023-05-10T11:40:52.137Z,437.00
2023-05-10T11:41:52.126Z,434.00
2023-05-10T11:42:52.205Z,434.00
2023-05-10T11:43:52.185Z,429.00
2023-05-10T11:44:52.248Z,427.00
2023-05-10T11:45:52.287Z,425.00
2023-05-10T11:46:52.384Z,421.00
2023-05-10T11:47:52.401Z,418.00
2023-05-10T11:48:52.390Z,414.00
2023-05-10T11:49:52.449Z,413.00
2023-05-10T11:50:52.439Z,411.00
2023-05-10T11:51:52.519Z,407.00
2023-05-10T11:52:52.529Z,405.00
2023-05-10T11:53:52.579Z,404.00
2023-05-10T11:54:52.587Z,402.00
2023-05-10T11:55:52.643Z,400.00
2023-05-10T11:56:52.670Z,399.00
2023-05-10T11:57:52.675Z,397.00
2023-05-10T11:58:52.745Z,397.00
2023-05-10T11:59:52.828Z,395.00
2023-05-10T12:00:52.850Z,393.00
2023-05-10T12:01:52.841Z,391.00
2023-05-10T12:02:52.943Z,393.00
2023-05-10T12:03:53.160Z,392.00
2023-05-10T12:04:53.075Z,400.00
2023-05-10T12:05:53.035Z,517.00
2023-05-10T12:06:53.081Z,529.00
2023-05-10T12:07:53.155Z,529.00
2023-05-10T12:08:53.147Z,572.00
2023-05-10T12:09:53.185Z,612.00
2023-05-10T12:10:53.224Z,635.00
2023-05-10T12:11:53.246Z,642.00
2023-05-10T12:12:53.284Z,671.00
2023-05-10T12:13:53.285Z,711.00
2023-05-10T12:14:53.351Z,722.00
2023-05-10T12:15:53.376Z,733.00
2023-05-10T12:16:53.643Z,743.00
2023-05-10T12:17:53.433Z,749.00
2023-05-10T12:18:53.440Z,760.00
2023-05-10T12:19:53.408Z,771.00
2023-05-10T12:20:53.419Z,781.00
2023-05-10T12:21:53.409Z,794.00
2023-05-10T12:22:53.458Z,803.00
2023-05-10T12:23:53.470Z,811.00
2023-05-10T12:24:53.445Z,806.00
2023-05-10T12:25:53.512Z,802.00
2023-05-10T12:26:53.429Z,798.00
2023-05-10T12:27:53.434Z,789.00
2023-05-10T12:28:53.454Z,780.00